createdAt,value
2023-04-15T00:01:13.256Z,8.46
2023-04-15T00:03:41.197Z,8.30
2023-04-15T00:06:08.546Z,8.20
2023-04-15T00:08:35.722Z,8.44
2023-04-15T00:11:05.877Z,8.22
2023-04-15T00:13:34.092Z,8.46
2023-04-15T00:16:01.673Z,8.21
2023-04-15T00:18:29.926Z,8.38
2023-04-15T00:20:57.573Z,8.25
2023-04-15T00:23:25.069Z,8.21
2023-04-15T00:25:52.461Z,8.52
2023-04-15T00:28:19.809Z,8.05
2023-04-15T00:30:47.330Z,8.13
2023-04-15T00:33:16.375Z,8.02
2023-04-15T00:35:43.599Z,8.12
2023-04-15T00:38:11.518Z,8.43
2023-04-15T00:40:38.997Z,8.26
2023-04-15T00:43:07.068Z,8.24
2023-04-15T00:45:34.275Z,8.47
2023-04-15T00:48:01.907Z,8.41
2023-04-15T00:50:29.196Z,8.34
2023-04-15T00:52:56.828Z,8.15
2023-04-15T00:55:24.020Z,8.39
2023-04-15T00:57:52.546Z,8.45
2023-04-15T01:00:21.155Z,8.39
2023-04-15T01:02:49.168Z,8.31
2023-04-15T01:05:18.532Z,8.53
2023-04-15T01:07:47.158Z,8.44
2023-04-15T01:10:14.566Z,8.46
2023-04-15T01:12:42.443Z,8.32
2023-04-15T01:15:11.031Z,8.36
2023-04-15T01:17:39.797Z,8.34
2023-04-15T01:20:10.131Z,8.09
2023-04-15T01:22:38.305Z,8.41
2023-04-15T01:25:13.155Z,8.43
2023-04-15T01:27:42.492Z,8.41
2023-04-15T01:30:10.512Z,8.32
2023-04-15T01:32:38.521Z,8.24
2023-04-15T01:35:06.398Z,8.15
2023-04-15T01:37:34.162Z,8.01
2023-04-15T01:40:01.354Z,8.01
2023-04-15T01:42:28.689Z,7.95
2023-04-15T01:44:55.917Z,7.89
2023-04-15T01:47:23.189Z,8.13
2023-04-15T01:49:50.416Z,7.96
2023-04-15T01:52:17.641Z,7.97
2023-04-15T01:54:44.998Z,7.99
2023-04-15T01:57:12.289Z,7.76
2023-04-15T01:59:39.422Z,8.00
2023-04-15T02:02:06.924Z,7.77
2023-04-15T02:04:34.298Z,7.67
2023-04-15T02:07:01.730Z,7.91
2023-04-15T02:09:29.230Z,7.71
2023-04-15T02:11:56.717Z,7.94
2023-04-15T02:14:23.934Z,7.95
2023-04-15T02:16:51.509Z,7.99
2023-04-15T02:19:18.876Z,8.22
2023-04-15T02:21:46.271Z,8.11
2023-04-15T02:24:13.456Z,8.00
2023-04-15T02:26:40.637Z,8.08
2023-04-15T02:29:07.870Z,7.96
2023-04-15T02:31:40.350Z,8.15
2023-04-15T02:34:08.205Z,8.02
2023-04-15T02:36:35.404Z,8.09
2023-04-15T02:39:04.309Z,7.82
2023-04-15T02:41:31.628Z,7.87
2023-04-15T02:43:58.918Z,7.91
2023-04-15T02:46:27.337Z,7.82
2023-04-15T02:48:54.693Z,8.00
2023-04-15T02:51:22.821Z,8.13
2023-04-15T02:53:50.702Z,8.03
2023-04-15T02:56:19.360Z,8.07
2023-04-15T02:58:46.703Z,8.09
2023-04-15T03:01:14.538Z,8.00
2023-04-15T03:03:42.019Z,7.75
2023-04-15T03:06:09.448Z,8.00
2023-04-15T03:08:37.269Z,7.93
2023-04-15T03:11:05.069Z,7.95
2023-04-15T03:13:32.230Z,8.00
2023-04-15T03:15:59.476Z,8.15
2023-04-15T03:18:26.691Z,8.08
2023-04-15T03:20:53.836Z,8.12
2023-04-15T03:23:21.313Z,8.29
2023-04-15T03:25:48.555Z,8.12
2023-04-15T03:28:15.787Z,8.02
2023-04-15T03:30:43.048Z,8.09
2023-04-15T03:33:10.272Z,7.85
2023-04-15T03:35:38.040Z,7.68
2023-04-15T03:38:05.196Z,7.73
2023-04-15T03:40:32.349Z,7.75
2023-04-15T03:42:59.499Z,7.90
2023-04-15T03:45:26.667Z,7.58
2023-04-15T03:47:53.831Z,7.69
2023-04-15T03:50:21.162Z,7.66
2023-04-15T03:52:50.743Z,7.65
2023-04-15T03:55:18.459Z,7.61
2023-04-15T03:57:46.443Z,7.60
2023-04-15T04:00:13.804Z,7.53
2023-04-15T04:02:41.395Z,7.54
2023-04-15T04:05:09.277Z,7.53
2023-04-15T04:07:36.518Z,7.50
2023-04-15T04:10:03.978Z,7.36
2023-04-15T04:12:31.170Z,7.44
2023-04-15T04:14:58.328Z,7.47
2023-04-15T04:17:25.534Z,7.49
2023-04-15T04:19:52.679Z,7.34
2023-04-15T04:22:24.231Z,7.26
2023-04-15T04:24:51.413Z,7.35
2023-04-15T04:27:18.543Z,7.35
2023-04-15T04:29:47.739Z,7.31
2023-04-15T04:32:15.096Z,7.39
2023-04-15T04:34:42.311Z,7.33
2023-04-15T04:37:09.445Z,7.42
2023-04-15T04:39:36.805Z,7.47
2023-04-15T04:42:04.058Z,7.32
2023-04-15T04:44:31.218Z,7.37
2023-04-15T04:46:58.390Z,7.40
2023-04-15T04:49:25.637Z,7.41
2023-04-15T04:51:53.261Z,7.34
2023-04-15T04:54:21.255Z,7.40
2023-04-15T04:56:48.384Z,7.40
2023-04-15T04:59:15.572Z,7.39
2023-04-15T05:01:42.947Z,7.37
2023-04-15T05:04:10.419Z,7.56
2023-04-15T05:06:37.633Z,7.58
2023-04-15T05:09:04.900Z,7.56
2023-04-15T05:11:32.141Z,7.57
2023-04-15T05:14:01.640Z,7.57
2023-04-15T05:16:28.837Z,7.55
2023-04-15T05:18:56.049Z,7.54
2023-04-15T05:21:23.605Z,7.54
2023-04-15T05:23:50.755Z,7.54
2023-04-15T05:26:17.916Z,7.60
2023-04-15T05:28:45.101Z,7.57
2023-04-15T05:31:12.251Z,7.77
2023-04-15T05:33:40.483Z,7.82
2023-04-15T05:36:08.119Z,7.97
2023-04-15T05:38:35.320Z,7.94
2023-04-15T05:41:02.576Z,8.01
2023-04-15T05:43:30.618Z,7.96
2023-04-15T05:45:57.902Z,7.89
2023-04-15T05:48:25.102Z,7.97
2023-04-15T05:50:52.278Z,7.89
2023-04-15T05:53:19.533Z,7.93
2023-04-15T05:55:46.773Z,8.04
2023-04-15T05:58:13.948Z,7.97
2023-04-15T06:00:41.199Z,7.85
2023-04-15T06:03:08.480Z,8.07
2023-04-15T06:05:35.686Z,8.04
2023-04-15T06:08:03.017Z,7.82
2023-04-15T06:10:30.836Z,7.87
2023-04-15T06:12:58.057Z,8.11
2023-04-15T06:15:25.173Z,8.21
2023-04-15T06:17:52.385Z,7.88
2023-04-15T06:20:19.596Z,8.00
2023-04-15T06:22:46.865Z,8.16
2023-04-15T06:25:14.114Z,8.17
2023-04-15T06:27:41.373Z,8.32
2023-04-15T06:30:09.214Z,8.31
2023-04-15T06:32:36.617Z,8.31
2023-04-15T06:35:04.071Z,8.29
2023-04-15T06:37:32.545Z,8.14
2023-04-15T06:39:59.683Z,8.28
2023-04-15T06:42:26.809Z,8.42
2023-04-15T06:44:53.917Z,8.44
2023-04-15T06:47:21.076Z,8.34
2023-04-15T06:49:48.223Z,8.38
2023-04-15T06:52:16.584Z,8.44
2023-04-15T06:54:43.796Z,8.41
2023-04-15T06:57:11.208Z,8.36
2023-04-15T06:59:38.352Z,8.48
2023-04-15T07:02:05.962Z,8.32
2023-04-15T07:04:33.612Z,8.55
2023-04-15T07:07:02.520Z,8.66
2023-04-15T07:09:29.727Z,8.64
2023-04-15T07:11:56.886Z,8.71
2023-04-15T07:14:24.113Z,8.68
2023-04-15T07:16:51.331Z,8.68
2023-04-15T07:19:18.578Z,8.77
2023-04-15T07:21:45.836Z,8.85
2023-04-15T07:24:16.779Z,8.83
2023-04-15T07:26:45.053Z,8.91
2023-04-15T07:29:12.207Z,8.78
2023-04-15T07:31:41.585Z,9.02
2023-04-15T07:34:08.807Z,8.72
2023-04-15T07:36:36.764Z,8.61
2023-04-15T07:39:04.355Z,8.97
2023-04-15T07:41:31.788Z,8.73
2023-04-15T07:43:59.013Z,8.78
2023-04-15T07:46:27.450Z,8.87
2023-04-15T07:48:54.724Z,8.83
2023-04-15T07:51:22.042Z,8.53
2023-04-15T07:53:50.325Z,8.75
2023-04-15T07:56:17.716Z,8.79
2023-04-15T07:58:44.906Z,8.83
2023-04-15T08:01:12.495Z,8.66
2023-04-15T08:03:40.071Z,8.84
2023-04-15T08:06:07.842Z,8.75
2023-04-15T08:08:35.092Z,8.93
2023-04-15T08:11:02.263Z,8.90
2023-04-15T08:13:29.486Z,9.02
2023-04-15T08:16:18.986Z,8.93
2023-04-15T08:18:48.634Z,8.99
2023-04-15T08:21:17.810Z,8.80
2023-04-15T08:23:47.285Z,8.98
2023-04-15T08:26:14.532Z,8.94
2023-04-15T08:28:43.938Z,9.08
2023-04-15T08:31:12.508Z,9.10
2023-04-15T08:33:39.679Z,9.16
2023-04-15T08:36:07.611Z,9.12
2023-04-15T08:38:35.000Z,9.31
2023-04-15T08:41:17.725Z,9.29
2023-04-15T08:43:54.641Z,9.17
2023-04-15T08:46:22.717Z,9.17
2023-04-15T08:48:50.817Z,9.15
2023-04-15T08:51:18.644Z,9.16
2023-04-15T08:53:47.466Z,9.18
2023-04-15T08:56:16.804Z,8.94
2023-04-15T08:58:45.248Z,9.12
2023-04-15T09:01:13.406Z,8.76
2023-04-15T09:03:41.667Z,8.97
2023-04-15T09:06:09.341Z,8.87
2023-04-15T09:08:36.502Z,9.14
2023-04-15T09:11:04.353Z,9.09
2023-04-15T09:13:31.993Z,8.98
2023-04-15T09:16:03.905Z,8.88
2023-04-15T09:18:34.206Z,9.06
2023-04-15T09:21:16.617Z,9.11
2023-04-15T09:23:58.401Z,8.95
2023-04-15T09:26:37.802Z,9.11
2023-04-15T09:29:15.180Z,9.15
2023-04-15T09:31:43.409Z,9.21
2023-04-15T09:34:10.745Z,9.34
2023-04-15T09:36:57.018Z,9.48
2023-04-15T09:39:24.175Z,9.43
2023-04-15T09:42:06.870Z,9.60
2023-04-15T09:44:34.233Z,9.82
2023-04-15T09:47:01.796Z,9.78
2023-04-15T09:49:29.000Z,9.61
2023-04-15T09:52:06.001Z,9.67
2023-04-15T09:54:38.731Z,9.93
2023-04-15T09:57:10.182Z,9.93
2023-04-15T09:59:37.739Z,9.85
2023-04-15T10:02:07.432Z,9.79
2023-04-15T10:04:39.800Z,9.62
2023-04-15T10:07:09.565Z,9.92
2023-04-15T10:09:39.158Z,9.68
2023-04-15T10:12:07.218Z,9.81
2023-04-15T10:14:38.472Z,9.88
2023-04-15T10:17:07.645Z,10.05
2023-04-15T10:19:37.999Z,10.05
2023-04-15T10:22:06.517Z,9.93
2023-04-15T10:24:34.203Z,9.86
2023-04-15T10:27:04.490Z,9.94
2023-04-15T10:29:31.679Z,9.87
2023-04-15T10:32:00.593Z,9.83
2023-04-15T10:34:30.668Z,10.01
2023-04-15T10:37:03.679Z,10.05
2023-04-15T10:39:37.342Z,9.92
2023-04-15T10:42:24.762Z,9.80
2023-04-15T10:44:57.044Z,9.95
2023-04-15T10:47:24.241Z,9.92
2023-04-15T10:49:57.976Z,9.87
2023-04-15T10:52:28.012Z,9.66
2023-04-15T10:55:16.047Z,9.73
2023-04-15T10:57:44.812Z,9.68
2023-04-15T11:00:17.357Z,9.70
2023-04-15T11:02:59.649Z,9.64
2023-04-15T11:05:41.964Z,9.77
2023-04-15T11:08:11.112Z,9.86
2023-04-15T11:10:38.148Z,9.76
2023-04-15T11:13:17.333Z,9.81
2023-04-15T11:15:46.398Z,9.49
2023-04-15T11:18:24.621Z,9.65
2023-04-15T11:20:54.907Z,9.73
2023-04-15T11:23:44.110Z,9.73
2023-04-15T11:26:15.314Z,9.50
2023-04-15T11:28:46.297Z,9.63
2023-04-15T11:31:19.878Z,9.71
2023-04-15T11:34:02.170Z,9.88
2023-04-15T11:36:32.010Z,9.97
2023-04-15T11:39:00.087Z,9.94
2023-04-15T11:41:27.484Z,10.06
2023-04-15T11:43:54.697Z,10.03
2023-04-15T11:46:28.554Z,9.92
2023-04-15T11:48:55.761Z,10.17
2023-04-15T11:51:23.001Z,10.28
2023-04-15T11:53:51.892Z,10.46
2023-04-15T11:56:22.504Z,10.37
2023-04-15T11:58:54.588Z,10.32
2023-04-15T12:01:33.484Z,10.54
2023-04-15T12:04:01.564Z,10.51
2023-04-15T12:06:37.298Z,10.50
2023-04-15T12:09:07.261Z,10.54
2023-04-15T12:11:49.520Z,10.80
2023-04-15T12:14:31.455Z,10.96
2023-04-15T12:17:04.849Z,11.07
2023-04-15T12:19:39.952Z,11.03
2023-04-15T12:22:15.484Z,11.34
2023-04-15T12:24:47.808Z,11.37
2023-04-15T12:27:17.145Z,11.63
2023-04-15T12:29:44.512Z,11.63
2023-04-15T12:32:14.592Z,11.65
2023-04-15T12:34:44.849Z,11.49
2023-04-15T12:37:15.970Z,11.57
2023-04-15T12:39:48.699Z,11.74
2023-04-15T12:42:17.959Z,11.92
2023-04-15T12:44:45.840Z,11.93
2023-04-15T12:47:13.387Z,11.92
2023-04-15T12:49:41.110Z,12.02
2023-04-15T12:52:08.525Z,12.05
2023-04-15T12:54:36.278Z,11.96
2023-04-15T12:57:06.799Z,11.95
2023-04-15T12:59:35.792Z,12.17
2023-04-15T13:02:04.210Z,12.08
2023-04-15T13:04:31.878Z,12.12
2023-04-15T13:06:59.334Z,12.17
2023-04-15T13:09:27.057Z,11.98
2023-04-15T13:11:54.529Z,11.97
2023-04-15T13:14:22.003Z,12.12
2023-04-15T13:16:49.226Z,12.23
2023-04-15T13:19:16.378Z,12.28
2023-04-15T13:21:43.612Z,12.22
2023-04-15T13:24:10.780Z,12.21
2023-04-15T13:26:38.185Z,12.35
2023-04-15T13:29:05.503Z,12.40
2023-04-15T13:31:32.733Z,12.44
2023-04-15T13:34:00.020Z,12.49
2023-04-15T13:36:27.471Z,12.61
2023-04-15T13:38:54.833Z,12.73
2023-04-15T13:41:22.047Z,12.82
2023-04-15T13:43:49.220Z,12.87
2023-04-15T13:46:16.655Z,12.78
2023-04-15T13:48:43.878Z,12.83
2023-04-15T13:51:11.011Z,12.78
2023-04-15T13:53:39.802Z,12.83
2023-04-15T13:56:08.867Z,12.78
2023-04-15T13:58:37.774Z,12.72
2023-04-15T14:01:07.029Z,12.72
2023-04-15T14:03:36.083Z,12.70
2023-04-15T14:06:07.910Z,12.72
2023-04-15T14:08:35.201Z,12.73
2023-04-15T14:11:02.549Z,12.75
2023-04-15T14:13:29.951Z,12.65
2023-04-15T14:15:57.306Z,12.62
2023-04-15T14:18:24.506Z,12.59
2023-04-15T14:20:51.808Z,12.58
2023-04-15T14:23:19.239Z,12.58
2023-04-15T14:25:48.324Z,12.57
2023-04-15T14:28:16.400Z,12.60
2023-04-15T14:30:43.794Z,12.64
2023-04-15T14:33:11.024Z,12.61
2023-04-15T14:35:39.115Z,12.66
2023-04-15T14:38:10.332Z,12.62
2023-04-15T14:40:37.525Z,12.53
2023-04-15T14:43:04.709Z,12.59
2023-04-15T14:45:31.892Z,12.59
2023-04-15T14:47:59.839Z,12.66
2023-04-15T14:50:27.104Z,12.52
2023-04-15T14:52:54.243Z,12.49
2023-04-15T14:55:21.361Z,12.57
2023-04-15T14:57:48.477Z,12.50
2023-04-15T15:00:16.331Z,12.49
2023-04-15T15:02:43.935Z,12.58
2023-04-15T15:05:12.201Z,12.46
2023-04-15T15:07:43.136Z,12.43
2023-04-15T15:10:10.530Z,12.44
2023-04-15T15:12:37.806Z,12.33
2023-04-15T15:15:15.480Z,12.33
2023-04-15T15:17:47.408Z,12.25
2023-04-15T15:20:14.610Z,12.35
2023-04-15T15:22:41.738Z,12.25
2023-04-15T15:25:08.932Z,12.23
2023-04-15T15:27:38.214Z,12.29
2023-04-15T15:30:06.791Z,12.20
2023-04-15T15:32:34.428Z,12.19
2023-04-15T15:35:02.169Z,12.15
2023-04-15T15:37:31.281Z,12.15
2023-04-15T15:39:58.810Z,12.11
2023-04-15T15:42:26.117Z,12.12
2023-04-15T15:44:53.277Z,12.23
2023-04-15T15:47:22.462Z,12.18
2023-04-15T15:49:49.761Z,12.09
2023-04-15T15:52:17.010Z,12.09
2023-04-15T15:54:44.481Z,12.33
2023-04-15T15:57:11.733Z,12.21
2023-04-15T15:59:41.204Z,12.26
2023-04-15T16:02:11.820Z,12.23
2023-04-15T16:04:39.794Z,12.23
2023-04-15T16:07:07.094Z,12.16
2023-04-15T16:09:34.497Z,12.16
2023-04-15T16:12:03.180Z,12.25
2023-04-15T16:14:30.418Z,12.29
2023-04-15T16:16:58.093Z,12.26
2023-04-15T16:19:25.423Z,12.29
2023-04-15T16:21:52.693Z,12.22
2023-04-15T16:24:19.926Z,12.23
2023-04-15T16:26:47.188Z,12.31
2023-04-15T16:29:14.372Z,12.29
2023-04-15T16:31:41.637Z,12.34
2023-04-15T16:34:09.229Z,12.39
2023-04-15T16:36:36.713Z,12.30
2023-04-15T16:39:04.675Z,12.38
2023-04-15T16:41:34.342Z,12.40
2023-04-15T16:44:03.173Z,12.32
2023-04-15T16:46:31.560Z,12.30
2023-04-15T16:48:58.763Z,12.17
2023-04-15T16:51:26.459Z,12.20
2023-04-15T16:53:53.585Z,12.13
2023-04-15T16:56:21.994Z,12.19
2023-04-15T16:58:49.210Z,12.09
2023-04-15T17:01:16.541Z,12.14
2023-04-15T17:03:44.002Z,12.13
2023-04-15T17:06:11.224Z,12.25
2023-04-15T17:08:38.559Z,12.17
2023-04-15T17:11:06.374Z,12.15
2023-04-15T17:13:33.549Z,12.16
2023-04-15T17:16:01.784Z,12.09
2023-04-15T17:18:29.120Z,12.07
2023-04-15T17:20:56.662Z,12.14
2023-04-15T17:23:25.950Z,12.13
2023-04-15T17:25:53.905Z,12.20
2023-04-15T17:28:21.071Z,12.09
2023-04-15T17:30:48.318Z,12.06
2023-04-15T17:33:55.546Z,12.07
2023-04-15T17:36:02.836Z,12.05
2023-04-15T17:38:30.250Z,12.03
2023-04-15T17:40:57.462Z,12.01
2023-04-15T17:43:24.632Z,11.98
2023-04-15T17:45:51.876Z,11.97
2023-04-15T17:48:19.054Z,11.95
2023-04-15T17:50:46.727Z,11.84
2023-04-15T17:53:13.942Z,11.93
2023-04-15T17:55:41.077Z,11.93
2023-04-15T17:58:08.341Z,11.89
2023-04-15T18:00:35.604Z,11.92
2023-04-15T18:03:03.117Z,11.94
2023-04-15T18:05:30.474Z,11.98
2023-04-15T18:07:57.650Z,11.97
2023-04-15T18:10:24.879Z,12.01
2023-04-15T18:12:52.077Z,11.93
2023-04-15T18:15:19.278Z,11.90
2023-04-15T18:17:47.718Z,11.97
2023-04-15T18:20:15.302Z,11.83
2023-04-15T18:22:43.543Z,11.99
2023-04-15T18:25:10.843Z,11.97
2023-04-15T18:27:39.384Z,11.82
2023-04-15T18:30:11.826Z,11.74
2023-04-15T18:32:39.456Z,11.72
2023-04-15T18:35:07.376Z,11.70
2023-04-15T18:37:34.743Z,11.68
2023-04-15T18:40:02.065Z,11.66
2023-04-15T18:42:29.301Z,11.70
2023-04-15T18:44:56.522Z,11.74
2023-04-15T18:47:27.115Z,11.60
2023-04-15T18:49:54.537Z,11.67
2023-04-15T18:52:21.791Z,11.67
2023-04-15T18:54:49.156Z,11.68
2023-04-15T18:57:23.059Z,11.63
2023-04-15T19:00:00.066Z,11.65
2023-04-15T19:02:27.355Z,11.66
2023-04-15T19:04:54.574Z,11.64
2023-04-15T19:07:23.029Z,11.57
2023-04-15T19:09:50.296Z,11.52
2023-04-15T19:12:17.475Z,11.68
2023-04-15T19:14:44.685Z,11.59
2023-04-15T19:17:11.852Z,11.56
2023-04-15T19:19:39.033Z,11.49
2023-04-15T19:22:06.618Z,11.51
2023-04-15T19:24:33.941Z,11.55
2023-04-15T19:27:01.728Z,11.50
2023-04-15T19:29:29.175Z,11.44
2023-04-15T19:31:56.408Z,11.50
2023-04-15T19:34:24.933Z,11.51
2023-04-15T19:36:52.185Z,11.58
2023-04-15T19:39:19.740Z,11.56
2023-04-15T19:41:47.232Z,11.53
2023-04-15T19:44:15.098Z,11.60
2023-04-15T19:46:44.740Z,11.57
2023-04-15T19:49:12.330Z,11.43
2023-04-15T19:51:41.536Z,11.40
2023-04-15T19:54:09.006Z,11.54
2023-04-15T19:56:36.319Z,11.44
2023-04-15T19:59:03.885Z,11.48
2023-04-15T20:01:31.920Z,11.45
2023-04-15T20:03:59.567Z,11.46
2023-04-15T20:06:27.635Z,11.37
2023-04-15T20:08:54.799Z,11.45
2023-04-15T20:11:22.143Z,11.44
2023-04-15T20:13:49.373Z,11.39
2023-04-15T20:16:16.680Z,11.45
2023-04-15T20:18:43.928Z,11.44
2023-04-15T20:21:11.169Z,11.37
2023-04-15T20:23:38.710Z,11.37
2023-04-15T20:26:09.017Z,11.43
2023-04-15T20:28:36.238Z,11.41
2023-04-15T20:31:03.629Z,11.43
2023-04-15T20:33:30.873Z,11.20
2023-04-15T20:35:58.688Z,11.39
2023-04-15T20:38:25.837Z,11.33
2023-04-15T20:40:53.022Z,11.33
2023-04-15T20:43:21.791Z,11.24
2023-04-15T20:45:50.550Z,11.24
2023-04-15T20:48:19.134Z,11.32
2023-04-15T20:50:46.478Z,11.21
2023-04-15T20:53:13.697Z,11.27
2023-04-15T20:55:41.022Z,11.23
2023-04-15T20:58:08.307Z,11.22
2023-04-15T21:00:35.630Z,10.95
2023-04-15T21:03:03.799Z,11.10
2023-04-15T21:05:31.090Z,11.07
2023-04-15T21:07:58.378Z,11.20
2023-04-15T21:10:25.852Z,11.25
2023-04-15T21:12:52.985Z,11.14
2023-04-15T21:15:20.522Z,11.08
2023-04-15T21:17:47.694Z,11.07
2023-04-15T21:20:15.170Z,11.19
2023-04-15T21:22:42.833Z,11.07
2023-04-15T21:25:10.323Z,10.97
2023-04-15T21:27:37.689Z,11.03
2023-04-15T21:30:05.688Z,11.03
2023-04-15T21:32:32.944Z,10.99
2023-04-15T21:35:00.155Z,11.06
2023-04-15T21:37:27.399Z,11.03
2023-04-15T21:39:54.612Z,10.99
2023-04-15T21:42:21.808Z,10.91
2023-04-15T21:44:48.972Z,11.01
2023-04-15T21:47:16.215Z,10.98
2023-04-15T21:49:43.529Z,10.96
2023-04-15T21:52:10.719Z,10.90
2023-04-15T21:54:38.108Z,10.94
2023-04-15T21:57:05.336Z,10.99
2023-04-15T21:59:32.521Z,10.91
2023-04-15T22:01:59.872Z,10.66
2023-04-15T22:04:27.314Z,10.81
2023-04-15T22:06:57.903Z,10.92
2023-04-15T22:09:25.118Z,10.68
2023-04-15T22:11:52.272Z,10.82
2023-04-15T22:14:19.444Z,10.73
2023-04-15T22:16:46.719Z,10.65
2023-04-15T22:19:13.926Z,10.75
2023-04-15T22:21:41.108Z,10.72
2023-04-15T22:24:32.602Z,10.68
2023-04-15T22:26:55.708Z,10.75
2023-04-15T22:29:22.875Z,10.65
2023-04-15T22:31:50.174Z,10.73
2023-04-15T22:34:21.354Z,10.74
2023-04-15T22:36:52.719Z,10.76
2023-04-15T22:39:20.453Z,10.76
2023-04-15T22:41:47.904Z,10.56
2023-04-15T22:44:15.092Z,10.57
2023-04-15T22:46:43.140Z,10.61
2023-04-15T22:49:10.761Z,10.73
2023-04-15T22:51:38.265Z,10.61
2023-04-15T22:54:05.555Z,10.57
2023-04-15T22:56:32.781Z,10.51
2023-04-15T22:58:59.969Z,10.41
2023-04-15T23:01:27.263Z,10.48
2023-04-15T23:03:55.925Z,10.43
2023-04-15T23:06:27.207Z,10.37
2023-04-15T23:08:54.549Z,10.13
2023-04-15T23:11:21.981Z,10.39
2023-04-15T23:13:50.547Z,10.34
2023-04-15T23:16:17.760Z,10.14
2023-04-15T23:18:45.013Z,10.07
2023-04-15T23:21:12.197Z,10.05
2023-04-15T23:23:39.553Z,10.01
2023-04-15T23:26:06.759Z,10.18
2023-04-15T23:28:33.928Z,10.06
2023-04-15T23:31:01.135Z,10.04
2023-04-15T23:33:28.304Z,9.95
2023-04-15T23:35:55.496Z,9.79
2023-04-15T23:38:22.629Z,9.78
2023-04-15T23:40:51.096Z,9.67
2023-04-15T23:43:18.263Z,9.99
2023-04-15T23:45:45.540Z,9.93
2023-04-15T23:48:12.726Z,10.01
2023-04-15T23:50:39.928Z,9.93
2023-04-15T23:53:07.129Z,9.99
2023-04-15T23:55:35.101Z,10.05
2023-04-15T23:58:02.360Z,9.95
